sensor_id;sensor_type;location;lat;lon;timestamp;P1;durP1;ratioP1;P2;durP2;ratioP2
39256;SDS011;24958;48.066;11.038;2022-10-18T00:02:14;5.07;;;3.90;;
39256;SDS011;24958;48.066;11.038;2022-10-18T00:04:40;5.10;;;4.57;;
39256;SDS011;24958;48.066;11.038;2022-10-18T00:07:06;5.20;;;4.07;;
39256;SDS011;24958;48.066;11.038;2022-10-18T00:09:32;4.37;;;3.73;;
39256;SDS011;24958;48.066;11.038;2022-10-18T00:11:58;5.27;;;4.07;;
39256;SDS011;24958;48.066;11.038;2022-10-18T00:14:24;4.73;;;4.33;;
39256;SDS011;24958;48.066;11.038;2022-10-18T00:16:50;4.33;;;3.70;;
39256;SDS011;24958;48.066;11.038;2022-10-18T00:19:16;6.77;;;4.43;;
39256;SDS011;24958;48.066;11.038;2022-10-18T00:21:42;5.67;;;3.70;;
39256;SDS011;24958;48.066;11.038;2022-10-18T00:24:08;3.83;;;3.40;;
39256;SDS011;24958;48.066;11.038;2022-10-18T00:26:34;4.53;;;3.80;;
39256;SDS011;24958;48.066;11.038;2022-10-18T00:29:02;4.30;;;3.43;;
39256;SDS011;24958;48.066;11.038;2022-10-18T00:31:29;4.67;;;3.63;;
39256;SDS011;24958;48.066;11.038;2022-10-18T00:33:57;4.50;;;3.63;;
39256;SDS011;24958;48.066;11.038;2022-10-18T00:36:23;4.30;;;3.80;;
39256;SDS011;24958;48.066;11.038;2022-10-18T00:38:50;4.23;;;3.80;;
39256;SDS011;24958;48.066;11.038;2022-10-18T00:41:19;4.90;;;3.77;;
39256;SDS011;24958;48.066;11.038;2022-10-18T00:44:01;7.17;;;3.70;;
39256;SDS011;24958;48.066;11.038;2022-10-18T00:46:35;4.07;;;3.67;;
39256;SDS011;24958;48.066;11.038;2022-10-18T00:49:06;7.33;;;3.50;;
39256;SDS011;24958;48.066;11.038;2022-10-18T00:51:34;3.53;;;3.23;;
39256;SDS011;24958;48.066;11.038;2022-10-18T00:54:01;5.13;;;3.57;;
39256;SDS011;24958;48.066;11.038;2022-10-18T00:56:27;5.20;;;3.43;;
39256;SDS011;24958;48.066;11.038;2022-10-18T00:58:53;5.50;;;4.10;;
39256;SDS011;24958;48.066;11.038;2022-10-18T01:01:19;4.10;;;3.70;;
39256;SDS011;24958;48.066;11.038;2022-10-18T01:03:45;5.37;;;4.23;;
39256;SDS011;24958;48.066;11.038;2022-10-18T01:06:11;4.40;;;4.00;;
39256;SDS011;24958;48.066;11.038;2022-10-18T01:11:51;5.20;;;3.93;;
39256;SDS011;24958;48.066;11.038;2022-10-18T01:13:55;6.00;;;3.90;;
39256;SDS011;24958;48.066;11.038;2022-10-18T01:16:28;3.80;;;3.50;;
39256;SDS011;24958;48.066;11.038;2022-10-18T01:18:57;4.47;;;3.27;;
39256;SDS011;24958;48.066;11.038;2022-10-18T01:22:08;6.17;;;4.23;;
39256;SDS011;24958;48.066;11.038;2022-10-18T01:32:11;5.10;;;3.60;;
39256;SDS011;24958;48.066;11.038;2022-10-18T01:34:39;4.30;;;3.90;;
39256;SDS011;24958;48.066;11.038;2022-10-18T01:37:08;5.80;;;4.40;;
39256;SDS011;24958;48.066;11.038;2022-10-18T01:39:37;5.37;;;4.63;;
39256;SDS011;24958;48.066;11.038;2022-10-18T01:42:06;5.23;;;3.97;;
39256;SDS011;24958;48.066;11.038;2022-10-18T01:44:33;5.77;;;4.20;;
39256;SDS011;24958;48.066;11.038;2022-10-18T01:47:00;6.20;;;3.53;;
39256;SDS011;24958;48.066;11.038;2022-10-18T01:49:26;5.07;;;3.70;;
39256;SDS011;24958;48.066;11.038;2022-10-18T01:51:52;4.80;;;3.70;;
39256;SDS011;24958;48.066;11.038;2022-10-18T01:54:19;4.33;;;3.40;;
39256;SDS011;24958;48.066;11.038;2022-10-18T02:04:15;5.40;;;3.53;;
39256;SDS011;24958;48.066;11.038;2022-10-18T02:06:43;3.73;;;3.33;;
39256;SDS011;24958;48.066;11.038;2022-10-18T02:09:20;7.07;;;3.80;;
39256;SDS011;24958;48.066;11.038;2022-10-18T02:11:49;5.17;;;3.53;;
39256;SDS011;24958;48.066;11.038;2022-10-18T02:14:17;6.83;;;3.87;;
39256;SDS011;24958;48.066;11.038;2022-10-18T02:16:48;4.27;;;3.83;;
39256;SDS011;24958;48.066;11.038;2022-10-18T02:21:44;3.97;;;3.20;;
39256;SDS011;24958;48.066;11.038;2022-10-18T02:24:12;3.37;;;3.00;;
39256;SDS011;24958;48.066;11.038;2022-10-18T02:26:38;3.43;;;3.03;;
39256;SDS011;24958;48.066;11.038;2022-10-18T02:29:05;6.77;;;3.40;;
39256;SDS011;24958;48.066;11.038;2022-10-18T02:34:17;3.80;;;3.47;;
39256;SDS011;24958;48.066;11.038;2022-10-18T02:36:46;3.30;;;3.00;;
39256;SDS011;24958;48.066;11.038;2022-10-18T02:39:16;4.57;;;2.90;;
39256;SDS011;24958;48.066;11.038;2022-10-18T02:41:43;4.60;;;3.00;;
39256;SDS011;24958;48.066;11.038;2022-10-18T02:44:09;4.20;;;2.90;;
39256;SDS011;24958;48.066;11.038;2022-10-18T02:46:35;4.43;;;2.90;;
39256;SDS011;24958;48.066;11.038;2022-10-18T02:49:01;4.27;;;3.00;;
39256;SDS011;24958;48.066;11.038;2022-10-18T02:51:28;6.07;;;3.30;;
39256;SDS011;24958;48.066;11.038;2022-10-18T02:53:54;4.03;;;3.40;;
39256;SDS011;24958;48.066;11.038;2022-10-18T02:56:20;5.70;;;3.83;;
39256;SDS011;24958;48.066;11.038;2022-10-18T02:58:46;4.37;;;3.80;;
39256;SDS011;24958;48.066;11.038;2022-10-18T03:01:11;4.23;;;3.70;;
39256;SDS011;24958;48.066;11.038;2022-10-18T03:03:37;4.63;;;3.70;;
39256;SDS011;24958;48.066;11.038;2022-10-18T03:06:03;4.37;;;3.97;;
39256;SDS011;24958;48.066;11.038;2022-10-18T03:08:29;5.30;;;3.80;;
39256;SDS011;24958;48.066;11.038;2022-10-18T03:10:55;4.20;;;3.80;;
39256;SDS011;24958;48.066;11.038;2022-10-18T03:13:21;3.93;;;3.63;;
39256;SDS011;24958;48.066;11.038;2022-10-18T03:15:47;4.50;;;3.50;;
39256;SDS011;24958;48.066;11.038;2022-10-18T03:18:13;3.87;;;3.50;;
39256;SDS011;24958;48.066;11.038;2022-10-18T03:20:40;5.30;;;4.07;;
39256;SDS011;24958;48.066;11.038;2022-10-18T03:23:06;5.20;;;3.70;;
39256;SDS011;24958;48.066;11.038;2022-10-18T03:25:32;5.93;;;3.57;;
39256;SDS011;24958;48.066;11.038;2022-10-18T03:27:58;5.03;;;3.53;;
39256;SDS011;24958;48.066;11.038;2022-10-18T03:30:24;5.57;;;3.27;;
39256;SDS011;24958;48.066;11.038;2022-10-18T03:32:50;3.90;;;3.13;;
39256;SDS011;24958;48.066;11.038;2022-10-18T03:35:18;3.80;;;3.33;;
39256;SDS011;24958;48.066;11.038;2022-10-18T03:37:44;5.40;;;3.20;;
39256;SDS011;24958;48.066;11.038;2022-10-18T03:40:10;4.07;;;3.27;;
39256;SDS011;24958;48.066;11.038;2022-10-18T03:42:36;4.53;;;3.70;;
39256;SDS011;24958;48.066;11.038;2022-10-18T03:45:02;4.37;;;3.43;;
39256;SDS011;24958;48.066;11.038;2022-10-18T03:47:28;4.17;;;3.53;;
39256;SDS011;24958;48.066;11.038;2022-10-18T03:49:54;4.30;;;3.90;;
39256;SDS011;24958;48.066;11.038;2022-10-18T03:52:20;4.13;;;3.50;;
39256;SDS011;24958;48.066;11.038;2022-10-18T03:54:46;4.70;;;3.50;;
39256;SDS011;24958;48.066;11.038;2022-10-18T03:57:12;4.90;;;4.27;;
39256;SDS011;24958;48.066;11.038;2022-10-18T03:59:38;4.63;;;4.00;;
39256;SDS011;24958;48.066;11.038;2022-10-18T04:02:04;5.83;;;4.33;;
39256;SDS011;24958;48.066;11.038;2022-10-18T04:04:30;7.67;;;5.50;;
39256;SDS011;24958;48.066;11.038;2022-10-18T04:06:56;5.43;;;4.93;;
39256;SDS011;24958;48.066;11.038;2022-10-18T04:09:22;5.30;;;3.90;;
39256;SDS011;24958;48.066;11.038;2022-10-18T04:11:51;4.23;;;3.83;;
39256;SDS011;24958;48.066;11.038;2022-10-18T04:14:17;3.93;;;3.37;;
39256;SDS011;24958;48.066;11.038;2022-10-18T04:16:45;4.70;;;4.13;;
39256;SDS011;24958;48.066;11.038;2022-10-18T04:19:11;5.90;;;3.53;;
39256;SDS011;24958;48.066;11.038;2022-10-18T04:21:37;6.47;;;3.87;;
39256;SDS011;24958;48.066;11.038;2022-10-18T04:24:06;5.90;;;4.27;;
39256;SDS011;24958;48.066;11.038;2022-10-18T04:26:34;5.07;;;4.10;;
39256;SDS011;24958;48.066;11.038;2022-10-18T04:29:00;6.77;;;5.97;;
39256;SDS011;24958;48.066;11.038;2022-10-18T04:31:26;6.07;;;4.73;;
39256;SDS011;24958;48.066;11.038;2022-10-18T04:33:52;5.07;;;4.57;;
39256;SDS011;24958;48.066;11.038;2022-10-18T04:36:18;6.80;;;6.10;;
39256;SDS011;24958;48.066;11.038;2022-10-18T04:38:44;6.80;;;6.17;;
39256;SDS011;24958;48.066;11.038;2022-10-18T04:41:10;5.97;;;5.50;;
39256;SDS011;24958;48.066;11.038;2022-10-18T04:43:36;5.03;;;4.53;;
39256;SDS011;24958;48.066;11.038;2022-10-18T04:46:02;4.47;;;3.67;;
39256;SDS011;24958;48.066;11.038;2022-10-18T04:48:28;3.90;;;3.57;;
39256;SDS011;24958;48.066;11.038;2022-10-18T04:50:54;4.50;;;4.03;;
39256;SDS011;24958;48.066;11.038;2022-10-18T04:53:20;5.00;;;4.50;;
39256;SDS011;24958;48.066;11.038;2022-10-18T04:55:46;6.43;;;5.17;;
39256;SDS011;24958;48.066;11.038;2022-10-18T04:58:13;5.63;;;5.00;;
39256;SDS011;24958;48.066;11.038;2022-10-18T05:00:39;5.47;;;4.90;;
39256;SDS011;24958;48.066;11.038;2022-10-18T05:03:06;5.97;;;5.38;;
39256;SDS011;24958;48.066;11.038;2022-10-18T05:05:32;5.33;;;4.83;;
39256;SDS011;24958;48.066;11.038;2022-10-18T05:07:58;7.93;;;4.60;;
39256;SDS011;24958;48.066;11.038;2022-10-18T05:10:24;6.27;;;5.10;;
39256;SDS011;24958;48.066;11.038;2022-10-18T05:12:50;5.27;;;4.77;;
39256;SDS011;24958;48.066;11.038;2022-10-18T05:15:16;6.67;;;4.57;;
39256;SDS011;24958;48.066;11.038;2022-10-18T05:17:42;4.83;;;4.20;;
39256;SDS011;24958;48.066;11.038;2022-10-18T05:20:08;8.00;;;5.00;;
39256;SDS011;24958;48.066;11.038;2022-10-18T05:22:34;4.70;;;4.30;;
39256;SDS011;24958;48.066;11.038;2022-10-18T05:25:00;4.23;;;3.87;;
39256;SDS011;24958;48.066;11.038;2022-10-18T05:27:27;6.23;;;4.20;;
39256;SDS011;24958;48.066;11.038;2022-10-18T05:29:53;5.43;;;4.10;;
39256;SDS011;24958;48.066;11.038;2022-10-18T05:32:19;4.17;;;3.87;;
39256;SDS011;24958;48.066;11.038;2022-10-18T05:34:45;5.20;;;3.57;;
39256;SDS011;24958;48.066;11.038;2022-10-18T05:37:13;5.37;;;4.20;;
39256;SDS011;24958;48.066;11.038;2022-10-18T05:39:39;5.77;;;4.40;;
39256;SDS011;24958;48.066;11.038;2022-10-18T05:42:05;6.47;;;4.40;;
39256;SDS011;24958;48.066;11.038;2022-10-18T05:44:32;5.30;;;4.40;;
39256;SDS011;24958;48.066;11.038;2022-10-18T05:47:01;5.27;;;4.33;;
39256;SDS011;24958;48.066;11.038;2022-10-18T05:49:27;6.73;;;4.30;;
39256;SDS011;24958;48.066;11.038;2022-10-18T05:51:53;5.07;;;4.20;;
39256;SDS011;24958;48.066;11.038;2022-10-18T05:54:19;4.70;;;4.30;;
39256;SDS011;24958;48.066;11.038;2022-10-18T05:56:45;4.83;;;4.33;;
39256;SDS011;24958;48.066;11.038;2022-10-18T05:59:11;5.53;;;5.03;;
39256;SDS011;24958;48.066;11.038;2022-10-18T06:01:38;5.47;;;4.97;;
39256;SDS011;24958;48.066;11.038;2022-10-18T06:04:04;5.13;;;4.70;;
39256;SDS011;24958;48.066;11.038;2022-10-18T06:06:30;5.83;;;4.33;;
39256;SDS011;24958;48.066;11.038;2022-10-18T06:08:56;4.50;;;4.10;;
39256;SDS011;24958;48.066;11.038;2022-10-18T06:11:23;6.37;;;4.40;;
39256;SDS011;24958;48.066;11.038;2022-10-18T06:13:49;5.20;;;4.50;;
39256;SDS011;24958;48.066;11.038;2022-10-18T06:16:17;4.70;;;4.30;;
39256;SDS011;24958;48.066;11.038;2022-10-18T06:18:50;4.87;;;4.17;;
39256;SDS011;24958;48.066;11.038;2022-10-18T06:21:16;4.70;;;4.20;;
39256;SDS011;24958;48.066;11.038;2022-10-18T06:23:43;4.43;;;4.03;;
39256;SDS011;24958;48.066;11.038;2022-10-18T06:26:09;4.53;;;4.13;;
39256;SDS011;24958;48.066;11.038;2022-10-18T06:28:36;4.45;;;4.05;;
39256;SDS011;24958;48.066;11.038;2022-10-18T06:31:03;4.50;;;4.10;;
39256;SDS011;24958;48.066;11.038;2022-10-18T06:33:29;4.65;;;3.90;;
39256;SDS011;24958;48.066;11.038;2022-10-18T06:35:57;5.43;;;4.35;;
39256;SDS011;24958;48.066;11.038;2022-10-18T06:38:23;5.65;;;4.75;;
39256;SDS011;24958;48.066;11.038;2022-10-18T06:40:49;5.93;;;4.45;;
39256;SDS011;24958;48.066;11.038;2022-10-18T06:43:15;5.22;;;3.85;;
39256;SDS011;24958;48.066;11.038;2022-10-18T06:45:41;4.97;;;4.57;;
39256;SDS011;24958;48.066;11.038;2022-10-18T06:48:07;6.60;;;4.82;;
39256;SDS011;24958;48.066;11.038;2022-10-18T06:50:33;5.25;;;4.32;;
39256;SDS011;24958;48.066;11.038;2022-10-18T06:52:59;5.97;;;5.32;;
39256;SDS011;24958;48.066;11.038;2022-10-18T06:55:28;4.90;;;4.45;;
39256;SDS011;24958;48.066;11.038;2022-10-18T06:57:54;7.25;;;6.30;;
39256;SDS011;24958;48.066;11.038;2022-10-18T07:00:20;5.78;;;4.90;;
39256;SDS011;24958;48.066;11.038;2022-10-18T07:02:46;7.72;;;4.95;;
39256;SDS011;24958;48.066;11.038;2022-10-18T07:05:12;5.93;;;5.20;;
39256;SDS011;24958;48.066;11.038;2022-10-18T07:07:38;5.10;;;4.60;;
39256;SDS011;24958;48.066;11.038;2022-10-18T07:10:05;5.53;;;4.57;;
39256;SDS011;24958;48.066;11.038;2022-10-18T07:12:31;4.80;;;4.40;;
39256;SDS011;24958;48.066;11.038;2022-10-18T07:14:58;4.53;;;4.18;;
39256;SDS011;24958;48.066;11.038;2022-10-18T07:17:24;5.68;;;5.10;;
39256;SDS011;24958;48.066;11.038;2022-10-18T07:19:50;9.00;;;5.40;;
39256;SDS011;24958;48.066;11.038;2022-10-18T07:22:16;6.57;;;6.07;;
39256;SDS011;24958;48.066;11.038;2022-10-18T07:24:42;7.22;;;6.22;;
39256;SDS011;24958;48.066;11.038;2022-10-18T07:27:08;5.75;;;5.25;;
39256;SDS011;24958;48.066;11.038;2022-10-18T07:29:34;6.30;;;5.20;;
39256;SDS011;24958;48.066;11.038;2022-10-18T07:32:02;5.40;;;4.82;;
39256;SDS011;24958;48.066;11.038;2022-10-18T07:34:28;5.78;;;5.28;;
39256;SDS011;24958;48.066;11.038;2022-10-18T07:36:54;5.40;;;4.82;;
39256;SDS011;24958;48.066;11.038;2022-10-18T07:39:21;5.45;;;4.95;;
39256;SDS011;24958;48.066;11.038;2022-10-18T07:41:47;5.28;;;4.80;;
39256;SDS011;24958;48.066;11.038;2022-10-18T07:44:13;7.47;;;4.70;;
39256;SDS011;24958;48.066;11.038;2022-10-18T07:46:39;5.35;;;4.93;;
39256;SDS011;24958;48.066;11.038;2022-10-18T07:49:05;6.60;;;5.40;;
39256;SDS011;24958;48.066;11.038;2022-10-18T07:51:31;7.07;;;5.38;;
39256;SDS011;24958;48.066;11.038;2022-10-18T07:53:58;7.38;;;6.63;;
39256;SDS011;24958;48.066;11.038;2022-10-18T07:56:24;8.43;;;7.70;;
39256;SDS011;24958;48.066;11.038;2022-10-18T07:58:51;7.32;;;6.60;;
39256;SDS011;24958;48.066;11.038;2022-10-18T08:01:18;6.00;;;5.32;;
39256;SDS011;24958;48.066;11.038;2022-10-18T08:03:45;6.03;;;5.00;;
39256;SDS011;24958;48.066;11.038;2022-10-18T08:06:11;5.63;;;5.13;;
39256;SDS011;24958;48.066;11.038;2022-10-18T08:08:38;5.38;;;4.88;;
39256;SDS011;24958;48.066;11.038;2022-10-18T08:11:05;5.75;;;4.80;;
39256;SDS011;24958;48.066;11.038;2022-10-18T08:13:31;5.15;;;4.75;;
39256;SDS011;24958;48.066;11.038;2022-10-18T08:16:02;6.03;;;4.82;;
39256;SDS011;24958;48.066;11.038;2022-10-18T08:18:28;5.75;;;5.15;;
39256;SDS011;24958;48.066;11.038;2022-10-18T08:21:01;6.32;;;5.55;;
39256;SDS011;24958;48.066;11.038;2022-10-18T08:23:28;6.47;;;5.88;;
39256;SDS011;24958;48.066;11.038;2022-10-18T08:26:04;6.97;;;6.30;;
39256;SDS011;24958;48.066;11.038;2022-10-18T08:28:31;16.95;;;15.52;;
39256;SDS011;24958;48.066;11.038;2022-10-18T08:31:04;7.43;;;6.72;;
39256;SDS011;24958;48.066;11.038;2022-10-18T08:33:31;7.18;;;6.43;;
39256;SDS011;24958;48.066;11.038;2022-10-18T08:35:59;7.65;;;6.45;;
39256;SDS011;24958;48.066;11.038;2022-10-18T08:38:28;6.03;;;5.38;;
39256;SDS011;24958;48.066;11.038;2022-10-18T08:40:55;7.32;;;6.72;;
39256;SDS011;24958;48.066;11.038;2022-10-18T08:45:47;5.70;;;5.20;;
39256;SDS011;24958;48.066;11.038;2022-10-18T08:51:03;4.97;;;3.35;;
39256;SDS011;24958;48.066;11.038;2022-10-18T08:56:35;5.75;;;3.50;;
39256;SDS011;24958;48.066;11.038;2022-10-18T08:59:07;4.18;;;3.40;;
39256;SDS011;24958;48.066;11.038;2022-10-18T09:04:34;5.60;;;3.97;;
39256;SDS011;24958;48.066;11.038;2022-10-18T09:07:22;3.80;;;3.50;;
39256;SDS011;24958;48.066;11.038;2022-10-18T09:10:04;4.07;;;3.40;;
39256;SDS011;24958;48.066;11.038;2022-10-18T09:20:21;4.18;;;3.78;;
39256;SDS011;24958;48.066;11.038;2022-10-18T09:25:21;4.30;;;3.38;;
39256;SDS011;24958;48.066;11.038;2022-10-18T09:27:52;3.47;;;3.17;;
39256;SDS011;24958;48.066;11.038;2022-10-18T09:32:50;4.25;;;3.85;;
39256;SDS011;24958;48.066;11.038;2022-10-18T09:35:29;3.85;;;3.42;;
39256;SDS011;24958;48.066;11.038;2022-10-18T09:38:01;4.53;;;3.78;;
39256;SDS011;24958;48.066;11.038;2022-10-18T09:40:29;6.65;;;3.55;;
39256;SDS011;24958;48.066;11.038;2022-10-18T09:42:59;4.78;;;3.83;;
39256;SDS011;24958;48.066;11.038;2022-10-18T09:45:27;4.20;;;3.70;;
39256;SDS011;24958;48.066;11.038;2022-10-18T09:50:40;6.90;;;3.95;;
39256;SDS011;24958;48.066;11.038;2022-10-18T09:55:38;7.47;;;4.50;;
39256;SDS011;24958;48.066;11.038;2022-10-18T09:58:06;7.50;;;4.10;;
39256;SDS011;24958;48.066;11.038;2022-10-18T10:00:34;4.40;;;4.00;;
39256;SDS011;24958;48.066;11.038;2022-10-18T10:03:06;4.78;;;3.80;;
39256;SDS011;24958;48.066;11.038;2022-10-18T10:05:36;4.63;;;4.10;;
39256;SDS011;24958;48.066;11.038;2022-10-18T10:08:02;5.65;;;4.07;;
39256;SDS011;24958;48.066;11.038;2022-10-18T10:10:29;4.30;;;3.90;;
39256;SDS011;24958;48.066;11.038;2022-10-18T10:13:28;4.88;;;3.95;;
39256;SDS011;24958;48.066;11.038;2022-10-18T10:15:54;5.70;;;4.10;;
39256;SDS011;24958;48.066;11.038;2022-10-18T10:18:21;6.28;;;3.95;;
39256;SDS011;24958;48.066;11.038;2022-10-18T10:20:51;5.50;;;3.53;;
39256;SDS011;24958;48.066;11.038;2022-10-18T10:23:43;9.05;;;4.28;;
39256;SDS011;24958;48.066;11.038;2022-10-18T10:28:52;7.45;;;3.78;;
39256;SDS011;24958;48.066;11.038;2022-10-18T10:31:27;4.53;;;3.65;;
39256;SDS011;24958;48.066;11.038;2022-10-18T10:34:01;4.47;;;3.75;;
39256;SDS011;24958;48.066;11.038;2022-10-18T10:36:30;4.47;;;3.80;;
39256;SDS011;24958;48.066;11.038;2022-10-18T10:39:08;6.38;;;4.25;;
39256;SDS011;24958;48.066;11.038;2022-10-18T10:41:35;6.50;;;4.10;;
39256;SDS011;24958;48.066;11.038;2022-10-18T10:44:03;5.18;;;4.25;;
39256;SDS011;24958;48.066;11.038;2022-10-18T10:46:33;4.55;;;4.13;;
39256;SDS011;24958;48.066;11.038;2022-10-18T10:48:59;5.03;;;4.47;;
39256;SDS011;24958;48.066;11.038;2022-10-18T10:51:30;4.95;;;4.03;;
39256;SDS011;24958;48.066;11.038;2022-10-18T10:54:11;4.40;;;4.00;;
39256;SDS011;24958;48.066;11.038;2022-10-18T10:56:56;5.80;;;4.05;;
39256;SDS011;24958;48.066;11.038;2022-10-18T10:59:24;4.80;;;4.10;;
39256;SDS011;24958;48.066;11.038;2022-10-18T11:04:35;5.05;;;4.00;;
39256;SDS011;24958;48.066;11.038;2022-10-18T11:12:12;5.95;;;4.00;;
39256;SDS011;24958;48.066;11.038;2022-10-18T11:14:42;4.40;;;3.63;;
39256;SDS011;24958;48.066;11.038;2022-10-18T11:19:57;4.85;;;3.90;;
39256;SDS011;24958;48.066;11.038;2022-10-18T11:22:25;4.43;;;3.63;;
39256;SDS011;24958;48.066;11.038;2022-10-18T11:24:53;4.72;;;3.55;;
39256;SDS011;24958;48.066;11.038;2022-10-18T11:27:23;3.30;;;3.00;;
39256;SDS011;24958;48.066;11.038;2022-10-18T11:32:19;6.50;;;4.38;;
39256;SDS011;24958;48.066;11.038;2022-10-18T11:55:55;4.28;;;3.08;;
39256;SDS011;24958;48.066;11.038;2022-10-18T12:01:06;4.03;;;3.33;;
39256;SDS011;24958;48.066;11.038;2022-10-18T12:06:12;5.10;;;4.55;;
39256;SDS011;24958;48.066;11.038;2022-10-18T12:08:46;4.38;;;2.80;;
39256;SDS011;24958;48.066;11.038;2022-10-18T12:11:23;3.30;;;3.00;;
39256;SDS011;24958;48.066;11.038;2022-10-18T12:13:52;3.92;;;2.83;;
39256;SDS011;24958;48.066;11.038;2022-10-18T12:16:22;3.28;;;2.85;;
39256;SDS011;24958;48.066;11.038;2022-10-18T12:21:18;4.30;;;3.08;;
39256;SDS011;24958;48.066;11.038;2022-10-18T12:23:55;4.22;;;3.20;;
39256;SDS011;24958;48.066;11.038;2022-10-18T12:26:22;3.63;;;3.33;;
39256;SDS011;24958;48.066;11.038;2022-10-18T12:29:05;6.05;;;3.08;;
39256;SDS011;24958;48.066;11.038;2022-10-18T12:31:41;3.85;;;3.20;;
39256;SDS011;24958;48.066;11.038;2022-10-18T12:34:21;5.40;;;2.88;;
39256;SDS011;24958;48.066;11.038;2022-10-18T12:39:41;5.07;;;2.88;;
39256;SDS011;24958;48.066;11.038;2022-10-18T12:42:42;3.63;;;3.33;;
39256;SDS011;24958;48.066;11.038;2022-10-18T12:45:03;3.75;;;2.75;;
39256;SDS011;24958;48.066;11.038;2022-10-18T12:47:29;7.35;;;3.10;;
39256;SDS011;24958;48.066;11.038;2022-10-18T12:49:57;3.47;;;2.78;;
39256;SDS011;24958;48.066;11.038;2022-10-18T12:52:24;6.93;;;3.08;;
39256;SDS011;24958;48.066;11.038;2022-10-18T13:19:09;3.63;;;3.13;;
39256;SDS011;24958;48.066;11.038;2022-10-18T13:24:09;5.78;;;3.17;;
39256;SDS011;24958;48.066;11.038;2022-10-18T13:29:08;4.45;;;3.17;;
39256;SDS011;24958;48.066;11.038;2022-10-18T13:31:50;3.83;;;3.00;;
39256;SDS011;24958;48.066;11.038;2022-10-18T13:36:54;3.58;;;2.95;;
39256;SDS011;24958;48.066;11.038;2022-10-18T13:39:20;6.22;;;3.08;;
39256;SDS011;24958;48.066;11.038;2022-10-18T13:44:28;4.68;;;3.90;;
39256;SDS011;24958;48.066;11.038;2022-10-18T13:49:38;5.05;;;3.35;;
39256;SDS011;24958;48.066;11.038;2022-10-18T14:05:02;5.95;;;3.22;;
39256;SDS011;24958;48.066;11.038;2022-10-18T14:07:31;4.65;;;3.30;;
39256;SDS011;24958;48.066;11.038;2022-10-18T14:09:57;4.80;;;3.35;;
39256;SDS011;24958;48.066;11.038;2022-10-18T14:12:29;8.43;;;4.28;;
39256;SDS011;24958;48.066;11.038;2022-10-18T14:15:01;11.18;;;4.25;;
39256;SDS011;24958;48.066;11.038;2022-10-18T14:17:34;5.88;;;3.33;;
39256;SDS011;24958;48.066;11.038;2022-10-18T14:20:03;6.93;;;3.80;;
39256;SDS011;24958;48.066;11.038;2022-10-18T14:22:35;3.90;;;2.80;;
39256;SDS011;24958;48.066;11.038;2022-10-18T14:25:15;5.63;;;3.13;;
39256;SDS011;24958;48.066;11.038;2022-10-18T14:27:43;5.22;;;3.55;;
39256;SDS011;24958;48.066;11.038;2022-10-18T14:30:13;7.57;;;3.83;;
39256;SDS011;24958;48.066;11.038;2022-10-18T14:32:43;7.65;;;3.40;;
39256;SDS011;24958;48.066;11.038;2022-10-18T14:35:15;7.50;;;3.70;;
39256;SDS011;24958;48.066;11.038;2022-10-18T14:37:41;6.60;;;4.60;;
39256;SDS011;24958;48.066;11.038;2022-10-18T14:42:52;9.30;;;5.90;;
39256;SDS011;24958;48.066;11.038;2022-10-18T14:45:19;4.25;;;3.30;;
39256;SDS011;24958;48.066;11.038;2022-10-18T14:47:45;5.82;;;4.30;;
39256;SDS011;24958;48.066;11.038;2022-10-18T14:50:21;8.85;;;4.60;;
39256;SDS011;24958;48.066;11.038;2022-10-18T14:52:47;6.65;;;3.65;;
39256;SDS011;24958;48.066;11.038;2022-10-18T14:55:24;7.55;;;5.30;;
39256;SDS011;24958;48.066;11.038;2022-10-18T14:57:52;5.57;;;4.03;;
39256;SDS011;24958;48.066;11.038;2022-10-18T15:00:20;6.80;;;4.30;;
39256;SDS011;24958;48.066;11.038;2022-10-18T15:02:47;5.20;;;3.58;;
39256;SDS011;24958;48.066;11.038;2022-10-18T15:05:18;4.03;;;3.00;;
39256;SDS011;24958;48.066;11.038;2022-10-18T15:07:44;4.47;;;3.05;;
39256;SDS011;24958;48.066;11.038;2022-10-18T15:10:24;5.53;;;3.35;;
39256;SDS011;24958;48.066;11.038;2022-10-18T15:12:52;4.95;;;2.97;;
39256;SDS011;24958;48.066;11.038;2022-10-18T15:15:19;4.07;;;3.30;;
39256;SDS011;24958;48.066;11.038;2022-10-18T15:17:45;5.38;;;3.10;;
39256;SDS011;24958;48.066;11.038;2022-10-18T15:22:44;5.72;;;2.72;;
39256;SDS011;24958;48.066;11.038;2022-10-18T15:25:16;4.15;;;2.60;;
39256;SDS011;24958;48.066;11.038;2022-10-18T15:27:50;5.55;;;2.85;;
39256;SDS011;24958;48.066;11.038;2022-10-18T15:30:24;5.63;;;3.05;;
39256;SDS011;24958;48.066;11.038;2022-10-18T15:32:58;4.97;;;3.40;;
39256;SDS011;24958;48.066;11.038;2022-10-18T15:35:26;5.38;;;2.90;;
39256;SDS011;24958;48.066;11.038;2022-10-18T15:37:53;5.28;;;3.35;;
39256;SDS011;24958;48.066;11.038;2022-10-18T15:42:46;5.40;;;3.53;;
39256;SDS011;24958;48.066;11.038;2022-10-18T15:50:38;8.32;;;4.88;;
39256;SDS011;24958;48.066;11.038;2022-10-18T15:58:38;4.20;;;3.38;;
39256;SDS011;24958;48.066;11.038;2022-10-18T16:01:06;5.40;;;3.40;;
39256;SDS011;24958;48.066;11.038;2022-10-18T16:03:38;4.25;;;3.00;;
39256;SDS011;24958;48.066;11.038;2022-10-18T16:06:05;4.55;;;3.13;;
39256;SDS011;24958;48.066;11.038;2022-10-18T16:08:34;4.75;;;3.10;;
39256;SDS011;24958;48.066;11.038;2022-10-18T16:11:04;3.58;;;2.67;;
39256;SDS011;24958;48.066;11.038;2022-10-18T16:13:30;3.70;;;2.70;;
39256;SDS011;24958;48.066;11.038;2022-10-18T16:15:56;3.28;;;2.38;;
39256;SDS011;24958;48.066;11.038;2022-10-18T16:18:24;3.38;;;2.90;;
39256;SDS011;24958;48.066;11.038;2022-10-18T16:20:51;3.17;;;2.50;;
39256;SDS011;24958;48.066;11.038;2022-10-18T16:23:19;2.80;;;2.38;;
39256;SDS011;24958;48.066;11.038;2022-10-18T16:25:45;3.58;;;3.20;;
39256;SDS011;24958;48.066;11.038;2022-10-18T16:28:13;3.70;;;2.75;;
39256;SDS011;24958;48.066;11.038;2022-10-18T16:30:39;2.60;;;2.40;;
39256;SDS011;24958;48.066;11.038;2022-10-18T16:33:06;3.38;;;2.47;;
39256;SDS011;24958;48.066;11.038;2022-10-18T16:35:32;3.15;;;2.85;;
39256;SDS011;24958;48.066;11.038;2022-10-18T16:37:59;3.95;;;2.85;;
39256;SDS011;24958;48.066;11.038;2022-10-18T16:40:26;4.22;;;2.63;;
39256;SDS011;24958;48.066;11.038;2022-10-18T16:42:52;2.88;;;2.60;;
39256;SDS011;24958;48.066;11.038;2022-10-18T16:45:18;6.15;;;4.97;;
39256;SDS011;24958;48.066;11.038;2022-10-18T16:47:44;5.68;;;4.75;;
39256;SDS011;24958;48.066;11.038;2022-10-18T16:50:15;4.90;;;4.40;;
39256;SDS011;24958;48.066;11.038;2022-10-18T16:52:46;5.93;;;3.80;;
39256;SDS011;24958;48.066;11.038;2022-10-18T16:55:12;4.20;;;3.78;;
39256;SDS011;24958;48.066;11.038;2022-10-18T16:57:45;4.22;;;3.70;;
39256;SDS011;24958;48.066;11.038;2022-10-18T17:00:12;4.03;;;3.25;;
39256;SDS011;24958;48.066;11.038;2022-10-18T17:02:41;4.97;;;3.90;;
39256;SDS011;24958;48.066;11.038;2022-10-18T17:05:07;4.18;;;3.72;;
39256;SDS011;24958;48.066;11.038;2022-10-18T17:07:33;4.40;;;3.72;;
39256;SDS011;24958;48.066;11.038;2022-10-18T17:09:59;3.85;;;3.20;;
39256;SDS011;24958;48.066;11.038;2022-10-18T17:12:25;4.10;;;3.70;;
39256;SDS011;24958;48.066;11.038;2022-10-18T17:14:51;3.70;;;3.40;;
39256;SDS011;24958;48.066;11.038;2022-10-18T17:17:17;5.18;;;3.10;;
39256;SDS011;24958;48.066;11.038;2022-10-18T17:19:43;3.55;;;2.97;;
39256;SDS011;24958;48.066;11.038;2022-10-18T17:22:09;6.45;;;5.95;;
39256;SDS011;24958;48.066;11.038;2022-10-18T17:24:35;4.00;;;3.60;;
39256;SDS011;24958;48.066;11.038;2022-10-18T17:27:01;4.50;;;3.10;;
39256;SDS011;24958;48.066;11.038;2022-10-18T17:29:27;3.03;;;2.83;;